sensor_id;sensor_type;location;lat;lon;timestamp;P1;durP1;ratioP1;P2;durP2;ratioP2
43793;SDS011;29414;44.798;20.366;2022-07-10T00:01:00;5.28;;;1.73;;
43793;SDS011;29414;44.798;20.366;2022-07-10T00:05:00;3.38;;;1.34;;
43793;SDS011;29414;44.798;20.366;2022-07-10T00:09:01;4.05;;;1.00;;
43793;SDS011;29414;44.798;20.366;2022-07-10T00:13:01;6.35;;;1.98;;
43793;SDS011;29414;44.798;20.366;2022-07-10T00:17:10;2.00;;;1.02;;
43793;SDS011;29414;44.798;20.366;2022-07-10T00:21:11;2.75;;;1.33;;
43793;SDS011;29414;44.798;20.366;2022-07-10T00:25:11;3.78;;;1.67;;
43793;SDS011;29414;44.798;20.366;2022-07-10T00:29:12;2.45;;;1.13;;
43793;SDS011;29414;44.798;20.366;2022-07-10T00:33:12;10.93;;;1.60;;
43793;SDS011;29414;44.798;20.366;2022-07-10T00:37:12;2.82;;;1.30;;
43793;SDS011;29414;44.798;20.366;2022-07-10T00:41:12;2.88;;;1.60;;
43793;SDS011;29414;44.798;20.366;2022-07-10T00:45:13;2.53;;;1.50;;
43793;SDS011;29414;44.798;20.366;2022-07-10T00:49:13;3.03;;;1.25;;
43793;SDS011;29414;44.798;20.366;2022-07-10T00:53:13;5.28;;;1.50;;
43793;SDS011;29414;44.798;20.366;2022-07-10T00:57:14;2.15;;;1.60;;
43793;SDS011;29414;44.798;20.366;2022-07-10T01:01:15;2.08;;;1.23;;
43793;SDS011;29414;44.798;20.366;2022-07-10T01:05:16;7.80;;;1.98;;
43793;SDS011;29414;44.798;20.366;2022-07-10T01:09:16;5.60;;;1.55;;
43793;SDS011;29414;44.798;20.366;2022-07-10T01:13:17;3.00;;;1.85;;
43793;SDS011;29414;44.798;20.366;2022-07-10T01:17:17;1.52;;;1.13;;
43793;SDS011;29414;44.798;20.366;2022-07-10T01:21:27;2.15;;;1.90;;
43793;SDS011;29414;44.798;20.366;2022-07-10T01:25:28;2.50;;;1.40;;
43793;SDS011;29414;44.798;20.366;2022-07-10T01:29:28;2.50;;;1.48;;
43793;SDS011;29414;44.798;20.366;2022-07-10T01:33:28;2.00;;;1.30;;
43793;SDS011;29414;44.798;20.366;2022-07-10T01:37:29;4.57;;;1.80;;
43793;SDS011;29414;44.798;20.366;2022-07-10T01:41:29;1.23;;;1.08;;
43793;SDS011;29414;44.798;20.366;2022-07-10T01:45:29;4.53;;;1.58;;
43793;SDS011;29414;44.798;20.366;2022-07-10T01:49:30;3.40;;;1.45;;
43793;SDS011;29414;44.798;20.366;2022-07-10T01:53:31;4.60;;;1.67;;
43793;SDS011;29414;44.798;20.366;2022-07-10T01:57:31;2.47;;;0.95;;
43793;SDS011;29414;44.798;20.366;2022-07-10T02:01:32;2.42;;;1.92;;
43793;SDS011;29414;44.798;20.366;2022-07-10T02:05:32;2.90;;;1.30;;
43793;SDS011;29414;44.798;20.366;2022-07-10T02:09:32;4.05;;;1.67;;
43793;SDS011;29414;44.798;20.366;2022-07-10T02:13:33;3.08;;;1.40;;
43793;SDS011;29414;44.798;20.366;2022-07-10T02:17:33;3.20;;;1.48;;
43793;SDS011;29414;44.798;20.366;2022-07-10T02:21:33;2.26;;;1.28;;
43793;SDS011;29414;44.798;20.366;2022-07-10T02:25:33;4.65;;;2.40;;
43793;SDS011;29414;44.798;20.366;2022-07-10T02:29:34;3.38;;;1.50;;
43793;SDS011;29414;44.798;20.366;2022-07-10T02:33:34;2.53;;;1.92;;
43793;SDS011;29414;44.798;20.366;2022-07-10T02:37:36;3.45;;;1.88;;
43793;SDS011;29414;44.798;20.366;2022-07-10T02:41:37;4.60;;;1.98;;
43793;SDS011;29414;44.798;20.366;2022-07-10T02:45:37;1.75;;;1.40;;
43793;SDS011;29414;44.798;20.366;2022-07-10T02:49:37;5.68;;;1.70;;
43793;SDS011;29414;44.798;20.366;2022-07-10T02:53:37;1.77;;;1.20;;
43793;SDS011;29414;44.798;20.366;2022-07-10T02:57:38;2.78;;;1.55;;
43793;SDS011;29414;44.798;20.366;2022-07-10T03:01:38;4.13;;;1.67;;
43793;SDS011;29414;44.798;20.366;2022-07-10T03:05:38;1.70;;;1.60;;
43793;SDS011;29414;44.798;20.366;2022-07-10T03:09:38;3.20;;;2.10;;
43793;SDS011;29414;44.798;20.366;2022-07-10T03:13:39;4.72;;;1.95;;
43793;SDS011;29414;44.798;20.366;2022-07-10T03:17:39;2.88;;;1.80;;
43793;SDS011;29414;44.798;20.366;2022-07-10T03:21:39;2.03;;;1.70;;
43793;SDS011;29414;44.798;20.366;2022-07-10T03:25:40;5.25;;;1.88;;
43793;SDS011;29414;44.798;20.366;2022-07-10T03:29:40;3.96;;;1.90;;
43793;SDS011;29414;44.798;20.366;2022-07-10T03:33:40;6.60;;;1.80;;
43793;SDS011;29414;44.798;20.366;2022-07-10T03:37:41;4.28;;;1.98;;
43793;SDS011;29414;44.798;20.366;2022-07-10T03:41:41;4.93;;;1.75;;
43793;SDS011;29414;44.798;20.366;2022-07-10T03:45:41;4.38;;;1.50;;
43793;SDS011;29414;44.798;20.366;2022-07-10T03:49:41;1.65;;;1.48;;
43793;SDS011;29414;44.798;20.366;2022-07-10T03:53:42;1.70;;;1.52;;
43793;SDS011;29414;44.798;20.366;2022-07-10T03:57:42;3.00;;;1.48;;
43793;SDS011;29414;44.798;20.366;2022-07-10T04:01:54;4.85;;;2.00;;
43793;SDS011;29414;44.798;20.366;2022-07-10T04:05:55;2.40;;;1.75;;
43793;SDS011;29414;44.798;20.366;2022-07-10T04:09:55;1.90;;;1.40;;
43793;SDS011;29414;44.798;20.366;2022-07-10T04:13:55;3.10;;;2.03;;
43793;SDS011;29414;44.798;20.366;2022-07-10T04:17:55;3.50;;;1.80;;
43793;SDS011;29414;44.798;20.366;2022-07-10T04:21:56;4.28;;;2.08;;
43793;SDS011;29414;44.798;20.366;2022-07-10T04:25:56;2.63;;;2.40;;
43793;SDS011;29414;44.798;20.366;2022-07-10T04:29:57;4.43;;;2.20;;
43793;SDS011;29414;44.798;20.366;2022-07-10T04:33:57;5.57;;;2.22;;
43793;SDS011;29414;44.798;20.366;2022-07-10T04:37:57;3.32;;;1.92;;
43793;SDS011;29414;44.798;20.366;2022-07-10T04:41:58;3.05;;;1.58;;
43793;SDS011;29414;44.798;20.366;2022-07-10T04:45:58;5.75;;;1.98;;
43793;SDS011;29414;44.798;20.366;2022-07-10T04:49:58;4.10;;;1.70;;
43793;SDS011;29414;44.798;20.366;2022-07-10T04:53:59;3.53;;;2.30;;
43793;SDS011;29414;44.798;20.366;2022-07-10T04:57:59;7.45;;;2.63;;
43793;SDS011;29414;44.798;20.366;2022-07-10T05:01:59;7.45;;;2.35;;
43793;SDS011;29414;44.798;20.366;2022-07-10T05:06:00;2.95;;;1.88;;
43793;SDS011;29414;44.798;20.366;2022-07-10T05:10:00;5.22;;;1.83;;
43793;SDS011;29414;44.798;20.366;2022-07-10T05:14:00;2.00;;;1.50;;
43793;SDS011;29414;44.798;20.366;2022-07-10T05:18:01;3.22;;;1.40;;
43793;SDS011;29414;44.798;20.366;2022-07-10T05:22:01;3.28;;;1.52;;
43793;SDS011;29414;44.798;20.366;2022-07-10T05:26:01;2.08;;;1.30;;
43793;SDS011;29414;44.798;20.366;2022-07-10T05:30:02;3.30;;;1.23;;
43793;SDS011;29414;44.798;20.366;2022-07-10T05:34:02;3.10;;;1.42;;
43793;SDS011;29414;44.798;20.366;2022-07-10T05:38:03;3.33;;;1.55;;
43793;SDS011;29414;44.798;20.366;2022-07-10T05:42:03;2.50;;;1.17;;
43793;SDS011;29414;44.798;20.366;2022-07-10T05:46:03;1.83;;;1.05;;
43793;SDS011;29414;44.798;20.366;2022-07-10T05:50:04;3.00;;;1.38;;
43793;SDS011;29414;44.798;20.366;2022-07-10T05:54:04;2.72;;;1.30;;
43793;SDS011;29414;44.798;20.366;2022-07-10T05:58:05;2.25;;;1.02;;
43793;SDS011;29414;44.798;20.366;2022-07-10T06:02:05;2.08;;;1.17;;
43793;SDS011;29414;44.798;20.366;2022-07-10T06:06:06;3.15;;;1.38;;
43793;SDS011;29414;44.798;20.366;2022-07-10T06:10:06;1.55;;;0.95;;
43793;SDS011;29414;44.798;20.366;2022-07-10T06:14:07;3.35;;;1.15;;
43793;SDS011;29414;44.798;20.366;2022-07-10T06:18:07;2.83;;;1.00;;
43793;SDS011;29414;44.798;20.366;2022-07-10T06:22:07;2.40;;;0.95;;
43793;SDS011;29414;44.798;20.366;2022-07-10T06:26:26;2.47;;;1.10;;
43793;SDS011;29414;44.798;20.366;2022-07-10T06:30:27;2.38;;;1.40;;
43793;SDS011;29414;44.798;20.366;2022-07-10T06:34:27;4.85;;;1.48;;
43793;SDS011;29414;44.798;20.366;2022-07-10T06:38:27;1.17;;;0.68;;
43793;SDS011;29414;44.798;20.366;2022-07-10T06:42:27;1.92;;;0.52;;
43793;SDS011;29414;44.798;20.366;2022-07-10T06:46:28;3.58;;;0.82;;
43793;SDS011;29414;44.798;20.366;2022-07-10T06:50:29;4.50;;;0.64;;
43793;SDS011;29414;44.798;20.366;2022-07-10T06:54:34;1.23;;;0.90;;
43793;SDS011;29414;44.798;20.366;2022-07-10T06:58:34;5.38;;;0.90;;
43793;SDS011;29414;44.798;20.366;2022-07-10T07:02:35;1.90;;;0.93;;
43793;SDS011;29414;44.798;20.366;2022-07-10T07:06:35;1.98;;;1.00;;
43793;SDS011;29414;44.798;20.366;2022-07-10T07:10:35;5.35;;;0.82;;
43793;SDS011;29414;44.798;20.366;2022-07-10T07:14:36;4.28;;;0.80;;
43793;SDS011;29414;44.798;20.366;2022-07-10T07:18:36;2.70;;;0.80;;
43793;SDS011;29414;44.798;20.366;2022-07-10T07:22:47;2.38;;;0.60;;
43793;SDS011;29414;44.798;20.366;2022-07-10T07:27:06;4.22;;;0.77;;
43793;SDS011;29414;44.798;20.366;2022-07-10T07:31:06;1.52;;;0.70;;
43793;SDS011;29414;44.798;20.366;2022-07-10T07:35:07;5.55;;;0.75;;
43793;SDS011;29414;44.798;20.366;2022-07-10T07:39:07;2.78;;;0.65;;
43793;SDS011;29414;44.798;20.366;2022-07-10T07:43:07;1.42;;;0.73;;
43793;SDS011;29414;44.798;20.366;2022-07-10T07:47:08;3.42;;;0.60;;
43793;SDS011;29414;44.798;20.366;2022-07-10T07:51:08;1.77;;;0.60;;
43793;SDS011;29414;44.798;20.366;2022-07-10T07:55:08;5.28;;;1.13;;
43793;SDS011;29414;44.798;20.366;2022-07-10T07:59:09;1.00;;;0.60;;
43793;SDS011;29414;44.798;20.366;2022-07-10T08:03:10;1.42;;;0.80;;
43793;SDS011;29414;44.798;20.366;2022-07-10T08:07:11;1.64;;;0.60;;
43793;SDS011;29414;44.798;20.366;2022-07-10T08:11:11;4.45;;;1.02;;
43793;SDS011;29414;44.798;20.366;2022-07-10T08:15:12;1.60;;;0.50;;
43793;SDS011;29414;44.798;20.366;2022-07-10T08:19:12;3.28;;;0.82;;
43793;SDS011;29414;44.798;20.366;2022-07-10T08:23:13;1.98;;;0.60;;
43793;SDS011;29414;44.798;20.366;2022-07-10T08:27:13;3.63;;;0.55;;
43793;SDS011;29414;44.798;20.366;2022-07-10T08:31:13;1.20;;;0.47;;
43793;SDS011;29414;44.798;20.366;2022-07-10T08:35:14;2.28;;;0.52;;
43793;SDS011;29414;44.798;20.366;2022-07-10T08:39:14;4.18;;;0.57;;
43793;SDS011;29414;44.798;20.366;2022-07-10T08:43:16;4.65;;;0.55;;
43793;SDS011;29414;44.798;20.366;2022-07-10T08:47:18;4.43;;;0.80;;
43793;SDS011;29414;44.798;20.366;2022-07-10T08:51:24;2.47;;;0.60;;
43793;SDS011;29414;44.798;20.366;2022-07-10T08:55:25;3.95;;;1.35;;
43793;SDS011;29414;44.798;20.366;2022-07-10T08:59:26;2.65;;;0.60;;
43793;SDS011;29414;44.798;20.366;2022-07-10T09:03:27;0.90;;;0.40;;
43793;SDS011;29414;44.798;20.366;2022-07-10T09:07:35;1.20;;;0.60;;
43793;SDS011;29414;44.798;20.366;2022-07-10T09:11:36;3.60;;;0.93;;
43793;SDS011;29414;44.798;20.366;2022-07-10T09:15:47;1.07;;;0.53;;
43793;SDS011;29414;44.798;20.366;2022-07-10T09:19:47;2.97;;;0.60;;
43793;SDS011;29414;44.798;20.366;2022-07-10T09:23:48;2.88;;;0.70;;
43793;SDS011;29414;44.798;20.366;2022-07-10T09:27:51;1.30;;;0.20;;
43793;SDS011;29414;44.798;20.366;2022-07-10T09:31:57;2.22;;;0.50;;
43793;SDS011;29414;44.798;20.366;2022-07-10T09:40:07;1.27;;;0.30;;
43793;SDS011;29414;44.798;20.366;2022-07-10T09:44:08;4.38;;;0.50;;
43793;SDS011;29414;44.798;20.366;2022-07-10T09:48:08;1.75;;;0.20;;
43793;SDS011;29414;44.798;20.366;2022-07-10T09:52:09;2.38;;;0.50;;
43793;SDS011;29414;44.798;20.366;2022-07-10T09:56:11;0.82;;;0.40;;
43793;SDS011;29414;44.798;20.366;2022-07-10T10:00:11;1.95;;;0.30;;
43793;SDS011;29414;44.798;20.366;2022-07-10T10:04:12;3.70;;;0.50;;
43793;SDS011;29414;44.798;20.366;2022-07-10T10:08:17;2.70;;;0.30;;
43793;SDS011;29414;44.798;20.366;2022-07-10T10:12:21;2.00;;;0.43;;
43793;SDS011;29414;44.798;20.366;2022-07-10T10:16:24;2.03;;;0.40;;
43793;SDS011;29414;44.798;20.366;2022-07-10T10:20:25;0.65;;;0.35;;
43793;SDS011;29414;44.798;20.366;2022-07-10T10:24:38;1.95;;;0.35;;
43793;SDS011;29414;44.798;20.366;2022-07-10T10:28:38;4.10;;;0.43;;
43793;SDS011;29414;44.798;20.366;2022-07-10T10:32:40;6.50;;;0.65;;
43793;SDS011;29414;44.798;20.366;2022-07-10T10:36:44;3.05;;;0.43;;
43793;SDS011;29414;44.798;20.366;2022-07-10T10:40:45;10.43;;;0.93;;
43793;SDS011;29414;44.798;20.366;2022-07-10T10:44:45;1.08;;;0.17;;
43793;SDS011;29414;44.798;20.366;2022-07-10T10:49:03;5.93;;;0.50;;
43793;SDS011;29414;44.798;20.366;2022-07-10T10:53:04;1.98;;;0.20;;
43793;SDS011;29414;44.798;20.366;2022-07-10T10:57:15;2.67;;;0.22;;
43793;SDS011;29414;44.798;20.366;2022-07-10T11:09:22;1.50;;;0.30;;
43793;SDS011;29414;44.798;20.366;2022-07-10T11:13:24;1.67;;;0.30;;
43793;SDS011;29414;44.798;20.366;2022-07-10T11:17:27;4.03;;;0.20;;
43793;SDS011;29414;44.798;20.366;2022-07-10T11:21:27;0.55;;;0.10;;
43793;SDS011;29414;44.798;20.366;2022-07-10T11:25:36;2.63;;;0.10;;
43793;SDS011;29414;44.798;20.366;2022-07-10T11:29:42;2.70;;;0.28;;
43793;SDS011;29414;44.798;20.366;2022-07-10T11:33:44;0.20;;;0.10;;
43793;SDS011;29414;44.798;20.366;2022-07-10T11:37:52;4.88;;;0.20;;
43793;SDS011;29414;44.798;20.366;2022-07-10T11:41:52;1.55;;;0.40;;
43793;SDS011;29414;44.798;20.366;2022-07-10T11:45:53;6.55;;;0.40;;
43793;SDS011;29414;44.798;20.366;2022-07-10T11:49:59;3.35;;;0.30;;
43793;SDS011;29414;44.798;20.366;2022-07-10T11:54:00;2.20;;;0.30;;
43793;SDS011;29414;44.798;20.366;2022-07-10T11:58:01;3.08;;;0.10;;
43793;SDS011;29414;44.798;20.366;2022-07-10T12:02:01;0.35;;;0.10;;
43793;SDS011;29414;44.798;20.366;2022-07-10T12:06:05;1.27;;;0.35;;
43793;SDS011;29414;44.798;20.366;2022-07-10T12:10:05;6.57;;;0.40;;
43793;SDS011;29414;44.798;20.366;2022-07-10T12:14:19;2.65;;;0.20;;
43793;SDS011;29414;44.798;20.366;2022-07-10T12:18:20;0.45;;;0.20;;
43793;SDS011;29414;44.798;20.366;2022-07-10T12:22:21;1.80;;;0.40;;
43793;SDS011;29414;44.798;20.366;2022-07-10T12:26:21;3.22;;;0.60;;
43793;SDS011;29414;44.798;20.366;2022-07-10T12:30:22;2.20;;;0.30;;
43793;SDS011;29414;44.798;20.366;2022-07-10T12:34:35;3.90;;;0.70;;
43793;SDS011;29414;44.798;20.366;2022-07-10T12:38:36;1.33;;;0.65;;
43793;SDS011;29414;44.798;20.366;2022-07-10T12:42:36;3.45;;;0.77;;
43793;SDS011;29414;44.798;20.366;2022-07-10T12:46:37;2.78;;;0.30;;
43793;SDS011;29414;44.798;20.366;2022-07-10T12:50:37;0.60;;;0.23;;
43793;SDS011;29414;44.798;20.366;2022-07-10T12:54:37;2.63;;;0.45;;
43793;SDS011;29414;44.798;20.366;2022-07-10T12:58:43;0.35;;;0.20;;
43793;SDS011;29414;44.798;20.366;2022-07-10T13:02:43;3.38;;;0.50;;
43793;SDS011;29414;44.798;20.366;2022-07-10T13:06:43;4.32;;;0.40;;
43793;SDS011;29414;44.798;20.366;2022-07-10T13:10:47;23.30;;;1.85;;
43793;SDS011;29414;44.798;20.366;2022-07-10T13:14:47;1.58;;;0.50;;
43793;SDS011;29414;44.798;20.366;2022-07-10T13:18:48;0.85;;;0.40;;
43793;SDS011;29414;44.798;20.366;2022-07-10T13:22:48;8.25;;;0.70;;
43793;SDS011;29414;44.798;20.366;2022-07-10T13:26:48;0.60;;;0.30;;
43793;SDS011;29414;44.798;20.366;2022-07-10T13:30:49;1.00;;;0.45;;
43793;SDS011;29414;44.798;20.366;2022-07-10T13:34:50;3.47;;;0.35;;
43793;SDS011;29414;44.798;20.366;2022-07-10T13:38:50;2.30;;;0.35;;
43793;SDS011;29414;44.798;20.366;2022-07-10T13:42:52;1.17;;;0.32;;
43793;SDS011;29414;44.798;20.366;2022-07-10T13:46:53;1.23;;;0.50;;
43793;SDS011;29414;44.798;20.366;2022-07-10T13:50:53;1.77;;;0.30;;
43793;SDS011;29414;44.798;20.366;2022-07-10T13:54:54;1.90;;;0.40;;
43793;SDS011;29414;44.798;20.366;2022-07-10T13:58:54;0.30;;;0.20;;
43793;SDS011;29414;44.798;20.366;2022-07-10T14:02:55;1.38;;;0.10;;
43793;SDS011;29414;44.798;20.366;2022-07-10T14:06:57;0.73;;;0.40;;
43793;SDS011;29414;44.798;20.366;2022-07-10T14:10:57;2.13;;;0.40;;
43793;SDS011;29414;44.798;20.366;2022-07-10T14:14:58;2.15;;;0.57;;
43793;SDS011;29414;44.798;20.366;2022-07-10T14:18:58;1.85;;;0.47;;
43793;SDS011;29414;44.798;20.366;2022-07-10T14:22:59;0.70;;;0.27;;
43793;SDS011;29414;44.798;20.366;2022-07-10T14:26:59;1.48;;;0.52;;
43793;SDS011;29414;44.798;20.366;2022-07-10T14:31:00;7.03;;;0.77;;
43793;SDS011;29414;44.798;20.366;2022-07-10T14:35:03;2.42;;;0.30;;
43793;SDS011;29414;44.798;20.366;2022-07-10T14:39:03;1.70;;;0.28;;
43793;SDS011;29414;44.798;20.366;2022-07-10T14:43:04;2.30;;;0.22;;
43793;SDS011;29414;44.798;20.366;2022-07-10T14:47:04;8.50;;;0.38;;
43793;SDS011;29414;44.798;20.366;2022-07-10T14:51:07;5.50;;;0.75;;
43793;SDS011;29414;44.798;20.366;2022-07-10T14:55:07;3.33;;;0.30;;
43793;SDS011;29414;44.798;20.366;2022-07-10T14:59:08;3.50;;;0.35;;
43793;SDS011;29414;44.798;20.366;2022-07-10T15:03:08;2.72;;;0.80;;
43793;SDS011;29414;44.798;20.366;2022-07-10T15:07:08;1.65;;;0.60;;
43793;SDS011;29414;44.798;20.366;2022-07-10T15:11:11;2.33;;;0.47;;
43793;SDS011;29414;44.798;20.366;2022-07-10T15:15:11;1.23;;;0.55;;
43793;SDS011;29414;44.798;20.366;2022-07-10T15:19:12;3.73;;;0.40;;
43793;SDS011;29414;44.798;20.366;2022-07-10T15:23:12;2.70;;;0.43;;
43793;SDS011;29414;44.798;20.366;2022-07-10T15:27:13;4.28;;;0.75;;
43793;SDS011;29414;44.798;20.366;2022-07-10T15:31:13;4.32;;;1.23;;
43793;SDS011;29414;44.798;20.366;2022-07-10T15:35:14;3.55;;;0.77;;
43793;SDS011;29414;44.798;20.366;2022-07-10T15:39:14;4.38;;;1.80;;
43793;SDS011;29414;44.798;20.366;2022-07-10T15:43:14;7.20;;;1.70;;
43793;SDS011;29414;44.798;20.366;2022-07-10T15:47:14;3.63;;;0.70;;
43793;SDS011;29414;44.798;20.366;2022-07-10T15:51:15;1.80;;;0.70;;
43793;SDS011;29414;44.798;20.366;2022-07-10T15:55:15;3.92;;;0.68;;
43793;SDS011;29414;44.798;20.366;2022-07-10T15:59:18;2.63;;;0.43;;
43793;SDS011;29414;44.798;20.366;2022-07-10T16:03:22;1.30;;;0.50;;
43793;SDS011;29414;44.798;20.366;2022-07-10T16:07:23;1.33;;;0.60;;
43793;SDS011;29414;44.798;20.366;2022-07-10T16:11:23;2.20;;;0.32;;
43793;SDS011;29414;44.798;20.366;2022-07-10T16:15:24;0.60;;;0.30;;
43793;SDS011;29414;44.798;20.366;2022-07-10T16:19:24;1.03;;;0.30;;
43793;SDS011;29414;44.798;20.366;2022-07-10T16:23:24;2.90;;;0.30;;
43793;SDS011;29414;44.798;20.366;2022-07-10T16:27:24;12.10;;;1.50;;
43793;SDS011;29414;44.798;20.366;2022-07-10T16:31:25;1.88;;;0.43;;
43793;SDS011;29414;44.798;20.366;2022-07-10T16:35:25;2.05;;;0.30;;
43793;SDS011;29414;44.798;20.366;2022-07-10T16:39:25;3.13;;;0.40;;
43793;SDS011;29414;44.798;20.366;2022-07-10T16:43:26;2.58;;;0.32;;
43793;SDS011;29414;44.798;20.366;2022-07-10T16:47:30;2.70;;;0.73;;
43793;SDS011;29414;44.798;20.366;2022-07-10T16:51:31;1.58;;;0.40;;
43793;SDS011;29414;44.798;20.366;2022-07-10T16:55:37;1.67;;;0.63;;
43793;SDS011;29414;44.798;20.366;2022-07-10T16:59:37;3.38;;;0.55;;
43793;SDS011;29414;44.798;20.366;2022-07-10T17:03:37;4.70;;;0.70;;
43793;SDS011;29414;44.798;20.366;2022-07-10T17:07:38;2.00;;;0.40;;
43793;SDS011;29414;44.798;20.366;2022-07-10T17:11:39;6.25;;;0.35;;
43793;SDS011;29414;44.798;20.366;2022-07-10T17:15:39;1.83;;;0.30;;
43793;SDS011;29414;44.798;20.366;2022-07-10T17:19:40;1.48;;;0.38;;
43793;SDS011;29414;44.798;20.366;2022-07-10T17:23:40;3.35;;;0.35;;
43793;SDS011;29414;44.798;20.366;2022-07-10T17:27:42;2.72;;;0.50;;
43793;SDS011;29414;44.798;20.366;2022-07-10T17:31:42;1.95;;;0.57;;
43793;SDS011;29414;44.798;20.366;2022-07-10T17:35:43;10.02;;;0.82;;
43793;SDS011;29414;44.798;20.366;2022-07-10T17:39:43;2.40;;;0.55;;
43793;SDS011;29414;44.798;20.366;2022-07-10T17:43:44;2.85;;;0.50;;
43793;SDS011;29414;44.798;20.366;2022-07-10T17:47:44;1.33;;;0.47;;
43793;SDS011;29414;44.798;20.366;2022-07-10T17:51:44;4.75;;;0.40;;
43793;SDS011;29414;44.798;20.366;2022-07-10T17:55:45;3.75;;;0.77;;
43793;SDS011;29414;44.798;20.366;2022-07-10T17:59:45;3.65;;;0.70;;
43793;SDS011;29414;44.798;20.366;2022-07-10T18:03:45;8.15;;;1.17;;
43793;SDS011;29414;44.798;20.366;2022-07-10T18:07:45;5.00;;;1.02;;
43793;SDS011;29414;44.798;20.366;2022-07-10T18:11:46;4.35;;;1.15;;
43793;SDS011;29414;44.798;20.366;2022-07-10T18:15:46;4.65;;;0.75;;
43793;SDS011;29414;44.798;20.366;2022-07-10T18:19:46;3.83;;;1.20;;
43793;SDS011;29414;44.798;20.366;2022-07-10T18:23:47;10.18;;;1.05;;
43793;SDS011;29414;44.798;20.366;2022-07-10T18:27:48;3.30;;;0.95;;
43793;SDS011;29414;44.798;20.366;2022-07-10T18:31:48;5.97;;;1.10;;
43793;SDS011;29414;44.798;20.366;2022-07-10T18:35:49;1.70;;;0.40;;
43793;SDS011;29414;44.798;20.366;2022-07-10T18:39:50;4.28;;;0.82;;
43793;SDS011;29414;44.798;20.366;2022-07-10T18:43:50;2.28;;;0.90;;
43793;SDS011;29414;44.798;20.366;2022-07-10T18:47:50;4.18;;;1.08;;
43793;SDS011;29414;44.798;20.366;2022-07-10T18:51:51;2.03;;;0.95;;
43793;SDS011;29414;44.798;20.366;2022-07-10T18:55:51;5.07;;;1.33;;
43793;SDS011;29414;44.798;20.366;2022-07-10T18:59:52;11.15;;;1.55;;
43793;SDS011;29414;44.798;20.366;2022-07-10T19:03:52;5.70;;;1.88;;
43793;SDS011;29414;44.798;20.366;2022-07-10T19:07:53;5.75;;;2.30;;
43793;SDS011;29414;44.798;20.366;2022-07-10T19:11:53;7.50;;;2.53;;
43793;SDS011;29414;44.798;20.366;2022-07-10T19:15:54;8.00;;;2.90;;
43793;SDS011;29414;44.798;20.366;2022-07-10T19:19:54;3.42;;;2.67;;
43793;SDS011;29414;44.798;20.366;2022-07-10T19:23:54;8.80;;;2.63;;
43793;SDS011;29414;44.798;20.366;2022-07-10T19:27:55;4.43;;;2.05;;
43793;SDS011;29414;44.798;20.366;2022-07-10T19:31:56;3.80;;;1.80;;
43793;SDS011;29414;44.798;20.366;2022-07-10T19:35:56;5.18;;;1.48;;
43793;SDS011;29414;44.798;20.366;2022-07-10T19:39:57;7.65;;;1.55;;
43793;SDS011;29414;44.798;20.366;2022-07-10T19:43:57;7.10;;;1.42;;
43793;SDS011;29414;44.798;20.366;2022-07-10T19:47:57;5.30;;;2.25;;
43793;SDS011;29414;44.798;20.366;2022-07-10T19:51:58;5.32;;;1.55;;
43793;SDS011;29414;44.798;20.366;2022-07-10T19:55:58;5.03;;;1.40;;
43793;SDS011;29414;44.798;20.366;2022-07-10T19:59:58;6.57;;;1.80;;
43793;SDS011;29414;44.798;20.366;2022-07-10T20:03:58;2.38;;;0.75;;
43793;SDS011;29414;44.798;20.366;2022-07-10T20:07:59;6.30;;;1.10;;
43793;SDS011;29414;44.798;20.366;2022-07-10T20:11:59;2.25;;;0.77;;
43793;SDS011;29414;44.798;20.366;2022-07-10T20:15:59;2.58;;;0.75;;
43793;SDS011;29414;44.798;20.366;2022-07-10T20:19:59;3.00;;;0.77;;
43793;SDS011;29414;44.798;20.366;2022-07-10T20:24:00;5.05;;;0.93;;
43793;SDS011;29414;44.798;20.366;2022-07-10T20:28:00;3.42;;;0.63;;
43793;SDS011;29414;44.798;20.366;2022-07-10T20:32:00;2.65;;;0.77;;
43793;SDS011;29414;44.798;20.366;2022-07-10T20:36:01;5.90;;;1.35;;
43793;SDS011;29414;44.798;20.366;2022-07-10T20:40:19;3.30;;;0.80;;
43793;SDS011;29414;44.798;20.366;2022-07-10T20:44:20;5.57;;;0.50;;
43793;SDS011;29414;44.798;20.366;2022-07-10T20:48:20;1.77;;;0.82;;
43793;SDS011;29414;44.798;20.366;2022-07-10T20:52:20;1.70;;;0.95;;
43793;SDS011;29414;44.798;20.366;2022-07-10T20:56:21;5.38;;;0.73;;
43793;SDS011;29414;44.798;20.366;2022-07-10T21:00:21;1.25;;;0.40;;
43793;SDS011;29414;44.798;20.366;2022-07-10T21:04:21;1.42;;;0.60;;
43793;SDS011;29414;44.798;20.366;2022-07-10T21:08:22;3.55;;;0.47;;
43793;SDS011;29414;44.798;20.366;2022-07-10T21:12:22;1.75;;;0.63;;
43793;SDS011;29414;44.798;20.366;2022-07-10T21:16:22;4.85;;;0.60;;
43793;SDS011;29414;44.798;20.366;2022-07-10T21:20:23;0.85;;;0.45;;
43793;SDS011;29414;44.798;20.366;2022-07-10T21:24:24;2.53;;;0.40;;
43793;SDS011;29414;44.798;20.366;2022-07-10T21:28:24;3.50;;;0.60;;
43793;SDS011;29414;44.798;20.366;2022-07-10T21:32:24;3.15;;;0.80;;
43793;SDS011;29414;44.798;20.366;2022-07-10T21:36:24;1.60;;;0.38;;
43793;SDS011;29414;44.798;20.366;2022-07-10T21:40:25;3.08;;;0.93;;
43793;SDS011;29414;44.798;20.366;2022-07-10T21:44:26;3.65;;;0.70;;
43793;SDS011;29414;44.798;20.366;2022-07-10T21:48:27;6.13;;;1.20;;
43793;SDS011;29414;44.798;20.366;2022-07-10T21:52:27;3.08;;;0.70;;
43793;SDS011;29414;44.798;20.366;2022-07-10T21:56:27;5.38;;;0.90;;
43793;SDS011;29414;44.798;20.366;2022-07-10T22:00:30;5.05;;;1.15;;
43793;SDS011;29414;44.798;20.366;2022-07-10T22:04:30;3.55;;;1.15;;
43793;SDS011;29414;44.798;20.366;2022-07-10T22:08:30;5.85;;;1.75;;
43793;SDS011;29414;44.798;20.366;2022-07-10T22:12:31;6.82;;;2.85;;
43793;SDS011;29414;44.798;20.366;2022-07-10T22:16:31;6.57;;;3.00;;
43793;SDS011;29414;44.798;20.366;2022-07-10T22:20:31;8.10;;;3.65;;
43793;SDS011;29414;44.798;20.366;2022-07-10T22:24:31;7.20;;;3.13;;
43793;SDS011;29414;44.798;20.366;2022-07-10T22:28:32;6.22;;;2.60;;
43793;SDS011;29414;44.798;20.366;2022-07-10T22:32:32;5.47;;;1.60;;
43793;SDS011;29414;44.798;20.366;2022-07-10T22:36:32;4.25;;;1.40;;
43793;SDS011;29414;44.798;20.366;2022-07-10T22:40:33;3.03;;;1.25;;
43793;SDS011;29414;44.798;20.366;2022-07-10T22:44:34;2.83;;;0.93;;
43793;SDS011;29414;44.798;20.366;2022-07-10T22:48:34;4.18;;;0.82;;
43793;SDS011;29414;44.798;20.366;2022-07-10T22:52:35;5.65;;;0.82;;
43793;SDS011;29414;44.798;20.366;2022-07-10T22:56:35;6.47;;;0.55;;
43793;SDS011;29414;44.798;20.366;2022-07-10T23:00:36;1.88;;;0.32;;
43793;SDS011;29414;44.798;20.366;2022-07-10T23:04:36;2.33;;;0.38;;
43793;SDS011;29414;44.798;20.366;2022-07-10T23:08:36;1.17;;;0.20;;
43793;SDS011;29414;44.798;20.366;2022-07-10T23:12:37;1.38;;;0.15;;
43793;SDS011;29414;44.798;20.366;2022-07-10T23:16:37;5.78;;;0.30;;
43793;SDS011;29414;44.798;20.366;2022-07-10T23:20:37;3.85;;;0.40;;
43793;SDS011;29414;44.798;20.366;2022-07-10T23:24:38;1.63;;;0.40;;
43793;SDS011;29414;44.798;20.366;2022-07-10T23:28:38;2.08;;;0.38;;
43793;SDS011;29414;44.798;20.366;2022-07-10T23:32:38;2.22;;;0.20;;
43793;SDS011;29414;44.798;20.366;2022-07-10T23:36:39;3.36;;;0.68;;
43793;SDS011;29414;44.798;20.366;2022-07-10T23:40:39;1.46;;;0.28;;
43793;SDS011;29414;44.798;20.366;2022-07-10T23:44:39;0.95;;;0.10;;
43793;SDS011;29414;44.798;20.366;2022-07-10T23:48:40;0.82;;;0.10;;
43793;SDS011;29414;44.798;20.366;2022-07-10T23:52:59;0.60;;;0.10;;
43793;SDS011;29414;44.798;20.366;2022-07-10T23:56:59;1.67;;;0.25;;
